Time;durP1;ratioP1;P1;durP2;ratioP2;P2;SDS_P1;SDS_P2;PMS_P1;PMS_P2;Temp;Humidity;BMP_temperature;BMP_pressure;BME280_temperature;BME280_humidity;BME280_pressure;Samples;Min_cycle;Max_cycle;Signal;HPM_P1;HPM_P2
2023/12/28 00:01:47;;;;;;;33.42;16.98;;;;;;;7.87;100.00;101823.25;5083018;28;20037;-67
2023/12/28 00:04:13;;;;;;;36.40;17.00;;;;;;;7.88;100.00;101824.91;5094023;28;20078;-67
2023/12/28 00:06:38;;;;;;;34.83;18.08;;;;;;;7.87;100.00;101826.69;5089085;28;20036;-67
2023/12/28 00:09:03;;;;;;;37.85;18.42;;;;;;;7.88;100.00;101825.75;5088196;28;20024;-67
2023/12/28 00:11:29;;;;;;;34.38;16.90;;;;;;;7.88;100.00;101815.38;5086045;28;20031;-68
2023/12/28 00:13:54;;;;;;;35.95;18.20;;;;;;;7.89;100.00;101826.59;5087919;28;20024;-67
2023/12/28 00:16:20;;;;;;;34.40;17.77;;;;;;;7.89;100.00;101836.97;5082731;28;20024;-67
2023/12/28 00:18:45;;;;;;;37.45;18.00;;;;;;;7.87;100.00;101820.66;5091405;28;20511;-67
2023/12/28 00:21:11;;;;;;;28.63;16.25;;;;;;;7.86;100.00;101826.78;5089140;28;20024;-67
2023/12/28 00:23:36;;;;;;;31.20;17.05;;;;;;;7.85;100.00;101830.28;5087582;28;20034;-67
2023/12/28 00:26:02;;;;;;;35.97;17.80;;;;;;;7.86;100.00;101826.78;5088179;28;20511;-67
2023/12/28 00:28:28;;;;;;;38.90;19.75;;;;;;;7.87;100.00;101833.63;5089480;28;20093;-67
2023/12/28 00:30:53;;;;;;;37.03;19.27;;;;;;;7.87;100.00;101828.44;5088442;28;20046;-67
2023/12/28 00:33:19;;;;;;;37.88;20.48;;;;;;;7.86;100.00;101826.78;5086101;28;20040;-67
2023/12/28 00:35:44;;;;;;;38.97;20.23;;;;;;;7.86;100.00;101831.97;5089756;28;20028;-68
2023/12/28 00:38:09;;;;;;;39.30;19.92;;;;;;;7.85;100.00;101833.72;5089279;28;20393;-67
2023/12/28 00:40:35;;;;;;;34.63;18.08;;;;;;;7.78;100.00;101834.19;5089919;28;20028;-67
2023/12/28 00:43:00;;;;;;;33.15;16.45;;;;;;;7.72;100.00;101830.19;5092056;28;21159;-67
2023/12/28 00:45:26;;;;;;;34.92;15.90;;;;;;;7.69;100.00;101827.78;5084234;28;20484;-67
2023/12/28 00:47:52;;;;;;;37.03;17.10;;;;;;;7.69;100.00;101839.91;5085618;28;20066;-67
2023/12/28 00:50:17;;;;;;;34.10;15.18;;;;;;;7.73;100.00;101836.22;5087240;28;20480;-67
2023/12/28 00:52:43;;;;;;;32.47;15.65;;;;;;;7.72;100.00;101829.34;5088172;28;20089;-69
2023/12/28 00:55:11;;;;;;;23.65;14.25;;;;;;;7.70;100.00;101833.81;5087087;28;20036;-67
2023/12/28 00:57:36;;;;;;;27.55;14.95;;;;;;;7.70;100.00;101836.41;5086471;28;20051;-68
2023/12/28 01:00:02;;;;;;;26.98;13.30;;;;;;;7.70;100.00;101831.22;5088877;28;20440;-68
2023/12/28 01:02:27;;;;;;;31.85;14.23;;;;;;;7.71;100.00;101833.72;5086158;28;20519;-67
2023/12/28 01:04:53;;;;;;;23.95;12.38;;;;;;;7.73;100.00;101829.28;5085584;28;20059;-67
2023/12/28 01:07:19;;;;;;;30.67;13.70;;;;;;;7.74;100.00;101837.88;5087700;28;20443;-68
2023/12/28 01:09:44;;;;;;;24.83;12.70;;;;;;;7.74;100.00;101843.06;5087006;28;20392;-67
2023/12/28 01:12:10;;;;;;;38.13;14.77;;;;;;;7.72;100.00;101826.78;5086080;28;20015;-67
2023/12/28 01:14:35;;;;;;;26.15;14.38;;;;;;;7.71;100.00;101831.13;5087532;28;20032;-68
2023/12/28 01:17:01;;;;;;;22.27;11.40;;;;;;;7.72;100.00;101834.53;5087380;28;20487;-67
2023/12/28 01:19:26;;;;;;;29.02;14.18;;;;;;;7.73;100.00;101836.22;5089633;28;20137;-67
2023/12/28 01:21:52;;;;;;;31.67;14.63;;;;;;;7.70;100.00;101839.81;5090771;28;20032;-67
2023/12/28 01:24:17;;;;;;;33.80;14.48;;;;;;;7.69;100.00;101845.09;5091713;28;20090;-68
2023/12/28 01:26:43;;;;;;;29.30;13.57;;;;;;;7.70;100.00;101839.00;5089322;28;20036;-67
2023/12/28 01:29:08;;;;;;;27.23;14.82;;;;;;;7.71;100.00;101838.91;5093386;28;20126;-68
2023/12/28 01:31:34;;;;;;;25.52;13.48;;;;;;;7.72;100.00;101839.75;5090978;28;20044;-67
2023/12/28 01:34:00;;;;;;;25.40;12.13;;;;;;;7.71;100.00;101840.66;5091385;28;20039;-67
2023/12/28 01:36:25;;;;;;;24.33;14.27;;;;;;;7.70;100.00;101834.63;5091514;28;20067;-67
2023/12/28 01:38:51;;;;;;;26.33;13.43;;;;;;;7.73;100.00;101836.22;5091109;28;20107;-67
2023/12/28 01:41:17;;;;;;;26.52;14.00;;;;;;;7.73;100.00;101837.06;5094531;28;20028;-67
2023/12/28 01:43:42;;;;;;;27.75;14.43;;;;;;;7.71;100.00;101835.47;5090890;28;20089;-68
2023/12/28 01:46:16;;;;;;;24.48;12.88;;;;;;;7.68;100.00;101827.88;5092740;28;20028;-67
2023/12/28 01:48:44;;;;;;;27.98;13.10;;;;;;;7.67;100.00;101834.81;5089627;28;20036;-68
2023/12/28 01:51:11;;;;;;;23.20;12.10;;;;;;;7.68;100.00;101830.47;5088891;28;20114;-67
2023/12/28 01:53:37;;;;;;;28.58;13.15;;;;;;;7.66;100.00;101828.81;5093689;28;20090;-67
2023/12/28 01:56:03;;;;;;;27.52;14.60;;;;;;;7.71;100.00;101830.28;5092592;28;20146;-67
2023/12/28 01:58:33;;;;;;;28.80;13.18;;;;;;;7.76;100.00;101831.69;5089577;28;20027;-67
2023/12/28 02:00:58;;;;;;;29.60;14.63;;;;;;;7.78;100.00;101829.81;5091715;28;20685;-68
2023/12/28 02:03:24;;;;;;;28.27;14.35;;;;;;;7.77;100.00;101832.50;5089901;28;20138;-67
2023/12/28 02:05:51;;;;;;;25.77;14.02;;;;;;;7.76;100.00;101836.88;5091201;28;20153;-67
2023/12/28 02:08:17;;;;;;;26.17;14.02;;;;;;;7.78;100.00;101831.59;5090113;28;20040;-67
2023/12/28 02:10:42;;;;;;;31.45;14.98;;;;;;;7.78;100.00;101826.41;5091678;28;20372;-67
2023/12/28 02:13:09;;;;;;;26.83;13.73;;;;;;;7.77;100.00;101822.13;5094316;28;20115;-67
2023/12/28 02:15:34;;;;;;;26.15;13.07;;;;;;;7.75;100.00;101817.03;5090277;28;20035;-67
2023/12/28 02:18:10;;;;;;;23.77;13.02;;;;;;;7.73;100.00;101821.50;5090445;28;20150;-67
2023/12/28 02:20:38;;;;;;;28.45;12.90;;;;;;;7.69;100.00;101812.22;5089533;28;20791;-67
2023/12/28 02:23:04;;;;;;;30.23;14.52;;;;;;;7.69;100.00;101816.56;5091150;28;20040;-67
2023/12/28 02:25:29;;;;;;;32.25;12.60;;;;;;;7.63;100.00;101802.22;5090249;28;20051;-67
2023/12/28 02:27:55;;;;;;;24.25;12.45;;;;;;;7.62;100.00;101800.53;5090547;28;20501;-67
2023/12/28 02:30:23;;;;;;;24.73;12.38;;;;;;;7.61;100.00;101791.09;5090137;28;20507;-67
2023/12/28 02:33:19;;;;;;;23.33;12.77;;;;;;;7.62;100.00;101796.19;5089824;28;20036;-67
2023/12/28 02:36:04;;;;;;;28.43;11.83;;;;;;;7.61;100.00;101786.75;5089069;28;20433;-68
2023/12/28 02:38:30;;;;;;;34.72;14.45;;;;;;;7.61;100.00;101781.56;5088552;28;20036;-68
2023/12/28 02:40:56;;;;;;;29.08;13.88;;;;;;;7.65;100.00;101777.00;5088227;28;20035;-67
2023/12/28 02:43:22;;;;;;;27.92;13.65;;;;;;;7.65;100.00;101782.19;5088476;28;20388;-67
2023/12/28 02:45:47;;;;;;;26.67;13.65;;;;;;;7.63;100.00;101779.69;5090232;28;20040;-67
2023/12/28 02:48:13;;;;;;;23.38;12.38;;;;;;;7.61;100.00;101781.56;5090502;28;20044;-68
2023/12/28 02:50:38;;;;;;;23.17;11.63;;;;;;;7.59;100.00;101783.41;5088099;28;20019;-67
2023/12/28 02:53:04;;;;;;;18.52;10.60;;;;;;;7.59;100.00;101780.81;5093065;28;20465;-67
2023/12/28 02:55:30;;;;;;;22.08;11.50;;;;;;;7.57;100.00;101774.88;5092540;28;20082;-67
2023/12/28 02:57:59;;;;;;;20.83;10.07;;;;;;;7.57;100.00;101784.44;5087387;28;20024;-68
2023/12/28 03:00:24;;;;;;;21.73;9.88;;;;;;;7.56;100.00;101772.41;5091965;28;20059;-67
2023/12/28 03:02:50;;;;;;;16.05;9.48;;;;;;;7.54;100.00;101780.28;5088219;28;20161;-67
2023/12/28 03:05:16;;;;;;;17.17;9.00;;;;;;;7.51;100.00;101779.63;5090320;28;20463;-67
2023/12/28 03:07:42;;;;;;;19.63;10.10;;;;;;;7.51;100.00;101770.09;5090738;28;20551;-67
2023/12/28 03:10:10;;;;;;;17.13;9.02;;;;;;;7.49;100.00;101774.53;5086564;28;20123;-67
2023/12/28 03:12:36;;;;;;;19.58;9.32;;;;;;;7.48;100.00;101772.03;5089060;28;20028;-67
2023/12/28 03:15:02;;;;;;;15.95;8.68;;;;;;;7.47;100.00;101767.78;5088919;28;20442;-67
2023/12/28 03:17:28;;;;;;;14.40;8.10;;;;;;;7.47;100.00;101765.19;5089258;28;20024;-67
2023/12/28 03:19:54;;;;;;;16.70;8.13;;;;;;;7.47;100.00;101767.78;5088977;28;20035;-67
2023/12/28 03:22:19;;;;;;;19.05;8.57;;;;;;;7.46;100.00;101772.13;5086559;28;20028;-67
2023/12/28 03:24:46;;;;;;;17.75;8.63;;;;;;;7.51;100.00;101758.88;5087117;28;20117;-68
2023/12/28 03:27:11;;;;;;;20.45;8.60;;;;;;;7.53;100.00;101760.47;5089898;28;20024;-67
2023/12/28 03:29:37;;;;;;;16.35;8.00;;;;;;;7.52;100.00;101753.63;5086964;28;20376;-67
2023/12/28 03:32:03;;;;;;;14.60;8.10;;;;;;;7.53;100.00;101757.03;5088219;28;20033;-68
2023/12/28 03:34:29;;;;;;;17.05;7.50;;;;;;;7.56;100.00;101752.47;5087016;28;20085;-67
2023/12/28 03:36:56;;;;;;;15.38;7.70;;;;;;;7.60;100.00;101748.75;5087623;28;20020;-67
2023/12/28 03:39:23;;;;;;;26.80;8.20;;;;;;;7.61;100.00;101749.59;5089256;28;20043;-67
2023/12/28 03:41:48;;;;;;;17.42;8.90;;;;;;;7.59;100.00;101744.50;5087872;28;20085;-68
2023/12/28 03:44:14;;;;;;;19.45;7.88;;;;;;;7.57;100.00;101738.56;5089227;28;20036;-68
2023/12/28 03:46:39;;;;;;;14.48;7.82;;;;;;;7.56;100.00;101746.47;5088577;28;20443;-67
2023/12/28 03:49:05;;;;;;;10.35;6.07;;;;;;;7.55;100.00;101747.41;5088003;28;20488;-67
2023/12/28 03:51:31;;;;;;;15.27;7.38;;;;;;;7.52;100.00;101745.00;5085974;28;20375;-68
2023/12/28 03:53:56;;;;;;;23.50;8.13;;;;;;;7.53;100.00;101746.66;5087898;28;20051;-67
2023/12/28 03:56:26;;;;;;;15.23;8.05;;;;;;;7.52;100.00;101737.22;5087092;28;20040;-68
2023/12/28 03:58:53;;;;;;;18.05;7.88;;;;;;;7.51;100.00;101743.34;5088820;28;20477;-67
2023/12/28 04:01:20;;;;;;;14.32;7.40;;;;;;;7.49;100.00;101746.00;5085204;28;20028;-68
2023/12/28 04:03:46;;;;;;;14.70;7.55;;;;;;;7.49;100.00;101742.59;5088637;28;20119;-67
2023/12/28 04:06:12;;;;;;;15.88;7.93;;;;;;;7.47;100.00;101745.28;5089424;28;20122;-67
2023/12/28 04:08:38;;;;;;;11.63;6.90;;;;;;;7.48;100.00;101743.50;5086517;28;20120;-67
2023/12/28 04:11:04;;;;;;;16.65;7.82;;;;;;;7.47;100.00;101747.03;5086030;28;20099;-69
2023/12/28 04:13:29;;;;;;;15.85;6.97;;;;;;;7.45;100.00;101744.53;5087440;28;20077;-67
2023/12/28 04:15:55;;;;;;;13.73;7.72;;;;;;;7.44;100.00;101742.88;5089207;28;20062;-68
2023/12/28 04:18:20;;;;;;;15.85;6.65;;;;;;;7.42;100.00;101738.69;5089515;28;20499;-67
2023/12/28 04:20:46;;;;;;;15.73;7.32;;;;;;;7.43;100.00;101746.38;5087672;28;20048;-67
2023/12/28 04:23:11;;;;;;;16.38;7.07;;;;;;;7.44;100.00;101747.22;5088444;28;20032;-67
2023/12/28 04:25:37;;;;;;;15.57;6.20;;;;;;;7.42;100.00;101752.50;5087656;28;20138;-67
2023/12/28 04:28:02;;;;;;;14.30;6.30;;;;;;;7.41;100.00;101750.84;5086234;28;20028;-68
2023/12/28 04:30:28;;;;;;;14.43;6.80;;;;;;;7.52;100.00;101757.97;5089168;28;20512;-67
2023/12/28 04:32:53;;;;;;;13.02;6.53;;;;;;;7.58;100.00;101755.81;5088109;28;20031;-67
2023/12/28 04:35:19;;;;;;;15.13;6.32;;;;;;;7.64;100.00;101744.22;5089277;28;20043;-67
2023/12/28 04:37:44;;;;;;;11.88;6.75;;;;;;;7.66;100.00;101747.56;5087118;28;20130;-68
2023/12/28 04:40:10;;;;;;;11.80;4.72;;;;;;;7.66;100.00;101747.56;5091487;28;20384;-68
2023/12/28 04:42:36;;;;;;;14.88;6.72;;;;;;;7.64;100.00;101750.25;5085362;28;20016;-68
2023/12/28 04:45:01;;;;;;;11.38;5.85;;;;;;;7.62;100.00;101754.69;5086185;28;20039;-67
2023/12/28 04:47:26;;;;;;;13.38;5.97;;;;;;;7.60;100.00;101759.13;5088207;28;20138;-67
2023/12/28 04:49:52;;;;;;;16.58;5.88;;;;;;;7.57;100.00;101756.72;5087008;28;20223;-67
2023/12/28 04:52:17;;;;;;;13.73;5.07;;;;;;;7.57;100.00;101769.69;5086622;28;20051;-68
2023/12/28 04:54:43;;;;;;;7.68;4.32;;;;;;;7.55;100.00;101760.38;5090609;28;20146;-67
2023/12/28 04:57:08;;;;;;;13.73;5.65;;;;;;;7.56;100.00;101770.63;5092714;28;20040;-67
2023/12/28 04:59:40;;;;;;;11.60;5.97;;;;;;;7.55;100.00;101766.41;5093755;28;20036;-67
2023/12/28 05:02:06;;;;;;;15.13;5.95;;;;;;;7.54;100.00;101769.91;5090231;28;20016;-68
2023/12/28 05:04:31;;;;;;;10.52;5.60;;;;;;;7.53;100.00;101768.25;5090492;28;20098;-68
2023/12/28 05:06:57;;;;;;;12.93;6.70;;;;;;;7.52;100.00;101761.41;5092487;28;20024;-69
2023/12/28 05:09:22;;;;;;;14.25;6.65;;;;;;;7.52;100.00;101773.53;5092422;28;20578;-68
2023/12/28 05:11:48;;;;;;;13.10;6.13;;;;;;;7.51;100.00;101770.09;5091191;28;20020;-69
2023/12/28 05:14:13;;;;;;;12.65;6.05;;;;;;;7.50;100.00;101778.81;5099501;28;20035;-68
2023/12/28 05:16:39;;;;;;;9.68;5.53;;;;;;;7.51;100.00;101771.84;5092012;28;20044;-68
2023/12/28 05:19:04;;;;;;;13.60;6.32;;;;;;;7.49;100.00;101771.13;5095032;28;20123;-68
2023/12/28 05:21:29;;;;;;;12.13;5.90;;;;;;;7.47;100.00;101776.41;5090000;28;20387;-68
2023/12/28 05:23:55;;;;;;;10.95;6.38;;;;;;;7.47;100.00;101779.00;5089734;28;20043;-69
2023/12/28 05:26:20;;;;;;;10.32;5.55;;;;;;;7.48;100.00;101767.69;5091419;28;20487;-68
2023/12/28 05:28:46;;;;;;;17.65;6.35;;;;;;;7.49;100.00;101771.94;5098574;28;20465;-68
2023/12/28 05:31:13;;;;;;;13.05;6.43;;;;;;;7.49;100.00;101776.31;5092391;28;20059;-68
2023/12/28 05:33:38;;;;;;;14.02;5.97;;;;;;;7.48;100.00;101780.66;5089688;28;20386;-68
2023/12/28 05:36:05;;;;;;;9.95;5.80;;;;;;;7.46;100.00;101777.31;5092243;28;20034;-69
2023/12/28 05:38:30;;;;;;;17.98;7.70;;;;;;;7.46;100.00;101782.50;5090569;28;20032;-67
2023/12/28 05:40:56;;;;;;;11.20;6.13;;;;;;;7.48;100.00;101780.66;5092192;28;20542;-68
2023/12/28 05:43:21;;;;;;;14.05;5.55;;;;;;;7.50;100.00;101781.41;5091066;28;20032;-68
2023/12/28 05:45:47;;;;;;;13.60;5.93;;;;;;;7.50;100.00;101778.81;5090259;28;20035;-68
2023/12/28 05:48:12;;;;;;;12.63;5.30;;;;;;;7.52;100.00;101776.13;5091140;28;20057;-68
2023/12/28 05:50:37;;;;;;;15.75;7.30;;;;;;;7.51;100.00;101777.03;5089655;28;20024;-68
2023/12/28 05:53:03;;;;;;;12.10;6.20;;;;;;;7.52;100.00;101778.72;5092394;28;20031;-68
2023/12/28 05:55:28;;;;;;;14.50;6.45;;;;;;;7.52;100.00;101782.13;5088830;28;20069;-68
2023/12/28 05:57:54;;;;;;;14.10;7.35;;;;;;;7.54;100.00;101785.47;5090286;28;20036;-68
2023/12/28 06:00:19;;;;;;;11.07;6.28;;;;;;;7.54;100.00;101788.06;5092519;28;20043;-68
2023/12/28 06:02:46;;;;;;;18.77;7.25;;;;;;;7.53;100.00;101783.81;5090058;28;20024;-68
2023/12/28 06:05:12;;;;;;;12.07;5.75;;;;;;;7.50;100.00;101785.75;5089273;28;20571;-68
2023/12/28 06:07:38;;;;;;;15.10;6.32;;;;;;;7.44;100.00;101779.16;5087388;28;20119;-68
2023/12/28 06:10:04;;;;;;;13.90;6.07;;;;;;;7.45;100.00;101780.84;5088732;28;20473;-68
2023/12/28 06:12:30;;;;;;;11.63;5.70;;;;;;;7.45;100.00;101775.66;5087363;28;20470;-68
2023/12/28 06:14:55;;;;;;;10.90;6.68;;;;;;;7.46;100.00;101777.31;5088489;28;20039;-68
2023/12/28 06:17:21;;;;;;;13.70;6.55;;;;;;;7.47;100.00;101784.19;5090492;28;20036;-68
2023/12/28 06:19:46;;;;;;;9.95;6.07;;;;;;;7.46;100.00;101787.69;5090512;28;20055;-68
2023/12/28 06:22:12;;;;;;;12.77;5.38;;;;;;;7.46;100.00;101781.66;5089179;28;20032;-68
2023/12/28 06:24:39;;;;;;;12.32;6.90;;;;;;;7.45;100.00;101782.59;5089948;28;20113;-68
2023/12/28 06:27:04;;;;;;;11.13;5.80;;;;;;;7.43;100.00;101780.09;5091296;27;20039;-68
2023/12/28 06:29:29;;;;;;;17.67;6.57;;;;;;;7.43;100.00;101782.69;5093296;28;20040;-68
2023/12/28 06:31:55;;;;;;;12.00;5.90;;;;;;;7.43;100.00;101781.84;5086880;28;20032;-68
2023/12/28 06:34:20;;;;;;;13.05;6.13;;;;;;;7.43;100.00;101782.69;5091174;28;20041;-68
2023/12/28 06:36:46;;;;;;;13.15;6.57;;;;;;;7.41;100.00;101781.94;5091071;28;20504;-68
2023/12/28 06:39:11;;;;;;;15.32;6.63;;;;;;;7.43;100.00;101790.47;5087240;28;20461;-68
2023/12/28 06:41:36;;;;;;;14.43;5.78;;;;;;;7.44;100.00;101788.72;5086203;28;20043;-68
2023/12/28 06:44:02;;;;;;;13.30;6.53;;;;;;;7.42;100.00;101796.56;5087108;28;20040;-68
2023/12/28 06:46:27;;;;;;;15.25;6.35;;;;;;;7.44;100.00;101789.53;5088980;28;20036;-68
2023/12/28 06:48:53;;;;;;;10.13;5.55;;;;;;;7.42;100.00;101796.56;5089883;28;20028;-68
2023/12/28 06:51:19;;;;;;;14.05;5.90;;;;;;;7.42;100.00;101796.56;5089787;28;20020;-68
2023/12/28 06:53:45;;;;;;;11.00;4.75;;;;;;;7.37;100.00;101793.41;5089787;28;20035;-68
2023/12/28 06:56:11;;;;;;;11.13;5.55;;;;;;;7.39;100.00;101788.97;5089941;28;20085;-68
2023/12/28 06:58:36;;;;;;;10.95;4.55;;;;;;;7.40;100.00;101795.84;5089512;28;20040;-68
2023/12/28 07:01:05;;;;;;;12.88;4.47;;;;;;;7.43;100.00;101795.66;5088738;28;20486;-68
2023/12/28 07:03:32;;;;;;;9.40;4.85;;;;;;;7.43;100.00;101790.47;5091497;28;20566;-68
2023/12/28 07:06:01;;;;;;;11.07;5.15;;;;;;;7.37;100.00;101790.84;5088662;28;20454;-68
2023/12/28 07:08:26;;;;;;;12.10;4.45;;;;;;;7.40;100.00;101790.66;5088533;28;20106;-68
2023/12/28 07:10:52;;;;;;;10.73;5.45;;;;;;;7.42;100.00;101788.81;5089161;28;20045;-68
2023/12/28 07:13:17;;;;;;;9.23;4.40;;;;;;;7.44;100.00;101789.53;5088878;28;20039;-68
2023/12/28 07:15:43;;;;;;;11.30;5.28;;;;;;;7.45;100.00;101778.25;5090922;28;20028;-68
2023/12/28 07:18:08;;;;;;;11.00;4.07;;;;;;;7.45;100.00;101787.78;5089407;28;20366;-68
2023/12/28 07:20:33;;;;;;;15.55;5.15;;;;;;;7.45;100.00;101785.19;5087990;28;20028;-68
2023/12/28 07:22:59;;;;;;;6.85;3.65;;;;;;;7.51;100.00;101777.88;5091238;28;20066;-68
2023/12/28 07:25:25;;;;;;;7.00;3.92;;;;;;;7.52;100.00;101787.31;5087606;28;20043;-68
2023/12/28 07:27:50;;;;;;;8.38;4.05;;;;;;;7.56;100.00;101783.59;5090930;28;20556;-68
2023/12/28 07:30:16;;;;;;;6.63;3.70;;;;;;;7.57;100.00;101784.44;5088998;28;20157;-68
2023/12/28 07:32:43;;;;;;;9.93;4.05;;;;;;;7.57;100.00;101787.84;5089947;28;20028;-68
2023/12/28 07:35:08;;;;;;;5.68;3.45;;;;;;;7.51;100.00;101787.41;5089651;28;20039;-68
2023/12/28 07:37:34;;;;;;;8.27;3.30;;;;;;;7.43;100.00;101781.84;5088803;28;20023;-68
2023/12/28 07:40:00;;;;;;;8.95;3.30;;;;;;;7.45;100.00;101785.19;5089330;28;20028;-68
2023/12/28 07:42:26;;;;;;;7.25;3.03;;;;;;;7.50;100.00;101783.16;5087415;28;20016;-68
2023/12/28 07:44:51;;;;;;;5.28;2.70;;;;;;;7.58;100.00;101781.75;5088552;28;20032;-68
2023/12/28 07:47:16;;;;;;;10.02;3.20;;;;;;;7.61;100.00;101781.56;5088312;28;20028;-68
2023/12/28 07:49:42;;;;;;;7.43;2.90;;;;;;;7.62;100.00;101783.22;5087722;28;20036;-68
2023/12/28 07:52:07;;;;;;;10.93;3.53;;;;;;;7.60;100.00;101773.88;5089724;28;20055;-68
2023/12/28 07:54:33;;;;;;;11.63;3.80;;;;;;;7.61;100.00;101781.56;5088004;28;20075;-68
2023/12/28 07:56:59;;;;;;;8.05;3.45;;;;;;;7.62;100.00;101778.03;5089065;28;20039;-68
2023/12/28 07:59:25;;;;;;;5.22;2.60;;;;;;;7.66;100.00;101779.50;5081368;28;20060;-68
2023/12/28 08:01:50;;;;;;;8.02;3.00;;;;;;;7.68;100.00;101786.38;5088568;28;20024;-68
2023/12/28 08:04:16;;;;;;;6.60;2.75;;;;;;;7.69;100.00;101788.03;5088895;28;20036;-68
2023/12/28 08:06:41;;;;;;;6.65;3.58;;;;;;;7.68;100.00;101788.97;5088821;28;20534;-68
2023/12/28 08:09:07;;;;;;;8.80;5.05;;;;;;;7.69;100.00;101782.84;5089499;28;20397;-68
2023/12/28 08:11:32;;;;;;;15.50;5.32;;;;;;;7.70;100.00;101784.50;5088310;28;20031;-68
2023/12/28 08:13:58;;;;;;;8.45;4.32;;;;;;;7.72;100.00;101791.28;5088724;28;20079;-68
2023/12/28 08:16:23;;;;;;;20.33;9.98;;;;;;;7.74;100.00;101792.03;5087303;28;20024;-67
2023/12/28 08:18:49;;;;;;;15.60;7.95;;;;;;;7.74;100.00;101797.22;5088253;28;20036;-67
2023/12/28 08:21:14;;;;;;;11.70;5.97;;;;;;;7.75;100.00;101803.22;5085199;28;20481;-68
2023/12/28 08:23:39;;;;;;;13.25;5.43;;;;;;;7.76;100.00;101800.53;5083824;28;20040;-67
2023/12/28 08:26:06;;;;;;;10.27;4.60;;;;;;;7.77;100.00;101796.19;5088480;28;20028;-67
2023/12/28 08:28:32;;;;;;;9.52;4.38;;;;;;;7.79;100.00;101794.34;5086297;28;20481;-68
2023/12/28 08:30:58;;;;;;;6.75;3.65;;;;;;;7.80;100.00;101801.19;5086408;28;20120;-65
2023/12/28 08:33:23;;;;;;;15.15;4.50;;;;;;;7.81;100.00;101803.69;5086906;28;20063;-65
2023/12/28 08:35:49;;;;;;;12.43;4.85;;;;;;;7.83;100.00;101811.38;5082361;28;20035;-68
2023/12/28 08:38:14;;;;;;;14.52;3.13;;;;;;;7.85;100.00;101809.53;5077333;28;20032;-68
2023/12/28 08:40:39;;;;;;;7.82;4.20;;;;;;;7.83;100.00;101812.22;5082660;28;20036;-68
2023/12/28 08:43:05;;;;;;;9.65;4.15;;;;;;;7.84;100.00;101816.47;5083242;28;20024;-68
2023/12/28 08:45:30;;;;;;;11.73;4.53;;;;;;;7.87;100.00;101824.06;5081805;28;20032;-68
2023/12/28 08:47:56;;;;;;;7.40;3.47;;;;;;;7.89;100.00;101827.41;5088271;28;20040;-68
2023/12/28 08:50:22;;;;;;;9.75;4.07;;;;;;;7.90;100.00;101826.50;5089341;28;20052;-68
2023/12/28 08:52:47;;;;;;;9.65;4.82;;;;;;;7.90;100.00;101836.88;5084166;28;20028;-68
2023/12/28 08:55:14;;;;;;;11.45;4.80;;;;;;;7.92;100.00;101839.38;5087187;28;20583;-68
2023/12/28 08:57:39;;;;;;;12.18;4.90;;;;;;;7.89;100.00;101836.97;5083840;28;24698;-68
2023/12/28 09:00:06;;;;;;;10.27;3.80;;;;;;;7.88;100.00;101843.91;5083199;28;20122;-68
2023/12/28 09:02:31;;;;;;;9.02;4.28;;;;;;;7.88;100.00;101851.69;5087825;28;20468;-68
2023/12/28 09:04:58;;;;;;;11.43;5.13;;;;;;;7.89;100.00;101845.59;5086624;28;20040;-68
2023/12/28 09:07:24;;;;;;;10.65;4.65;;;;;;;7.94;100.00;101851.31;5088959;28;20028;-68
2023/12/28 09:09:49;;;;;;;11.98;5.82;;;;;;;7.94;100.00;101840.13;5087407;28;20468;-68
2023/12/28 09:12:15;;;;;;;12.88;5.53;;;;;;;7.96;100.00;101838.25;5085274;28;20147;-68
2023/12/28 09:14:40;;;;;;;16.08;7.68;;;;;;;7.97;100.00;101842.53;5084667;28;20430;-68
2023/12/28 09:17:06;;;;;;;10.63;5.40;;;;;;;8.02;100.00;101844.84;5080015;28;20456;-68
2023/12/28 09:19:31;;;;;;;8.07;4.15;;;;;;;8.06;100.00;101839.34;5081667;28;20146;-68
2023/12/28 09:21:57;;;;;;;13.30;6.55;;;;;;;8.06;100.00;101838.50;5082713;28;20032;-68
2023/12/28 09:24:22;;;;;;;17.92;7.18;;;;;;;8.09;100.00;101843.50;5082608;28;20028;-68
2023/12/28 09:26:48;;;;;;;10.18;6.65;;;;;;;8.10;100.00;101845.16;5087469;28;20036;-68
2023/12/28 09:29:13;;;;;;;16.85;6.53;;;;;;;8.12;100.00;101838.13;5086028;28;20058;-68
2023/12/28 09:31:39;;;;;;;12.07;7.07;;;;;;;8.10;100.00;101843.41;5084974;28;20063;-68
2023/12/28 09:34:05;;;;;;;19.20;7.85;;;;;;;8.12;100.00;101841.56;5084105;28;20044;-68
2023/12/28 09:36:31;;;;;;;13.52;6.93;;;;;;;8.16;100.00;101832.66;5084411;28;20040;-68
2023/12/28 09:38:57;;;;;;;19.58;7.95;;;;;;;8.16;100.00;101826.63;5082345;28;20040;-68
2023/12/28 09:41:26;;;;;;;20.00;9.75;;;;;;;8.15;100.00;101825.78;5083424;28;20077;-68
2023/12/28 09:44:00;;;;;;;24.60;9.35;;;;;;;8.21;100.00;101834.97;5086088;28;20040;-68
2023/12/28 09:46:26;;;;;;;24.40;10.95;;;;;;;8.26;100.00;101828.56;5090086;28;20393;-68
2023/12/28 09:48:53;;;;;;;21.73;10.45;;;;;;;8.30;100.00;101819.63;5093599;28;20024;-68
2023/12/28 09:51:19;;;;;;;22.23;10.50;;;;;;;8.37;100.00;101827.06;5085938;28;20437;-68
2023/12/28 09:53:45;;;;;;;23.95;10.75;;;;;;;8.37;100.00;101811.50;5084892;28;20038;-68
2023/12/28 09:56:14;;;;;;;16.33;9.45;;;;;;;8.34;100.00;101802.13;5086565;28;20031;-68
2023/12/28 09:58:40;;;;;;;17.83;9.38;;;;;;;8.35;100.00;101802.97;5092426;28;20023;-68
2023/12/28 10:01:07;;;;;;;22.73;9.52;;;;;;;8.36;100.00;101805.47;5093025;28;20033;-68
2023/12/28 10:03:32;;;;;;;15.65;8.80;;;;;;;8.43;100.00;101798.13;5091095;28;20089;-68
2023/12/28 10:05:58;;;;;;;18.33;9.13;;;;;;;8.44;100.00;101794.59;5092067;28;20024;-68
2023/12/28 10:08:24;;;;;;;13.60;7.70;;;;;;;8.46;100.00;101800.53;5087859;28;20032;-68
2023/12/28 10:10:54;;;;;;;16.75;8.50;;;;;;;8.50;100.00;101796.81;5086025;28;20345;-68
2023/12/28 10:13:21;;;;;;;15.57;8.68;;;;;;;8.48;100.00;101798.66;5089320;28;21160;-68
2023/12/28 10:15:47;;;;;;;18.00;8.40;;;;;;;8.58;100.00;101794.50;5085500;28;20043;-68
2023/12/28 10:18:12;;;;;;;21.27;8.65;;;;;;;8.67;100.00;101798.28;5086641;28;20367;-68
2023/12/28 10:20:38;;;;;;;18.15;9.23;;;;;;;8.71;100.00;101792.78;5085909;28;20055;-68
2023/12/28 10:23:04;;;;;;;18.25;7.65;;;;;;;8.70;100.00;101783.31;5091615;28;20031;-68
2023/12/28 10:25:32;;;;;;;9.35;6.35;;;;;;;8.66;100.00;101789.66;5088128;28;20040;-68
2023/12/28 10:27:57;;;;;;;11.77;6.32;;;;;;;8.60;100.00;101787.47;5090262;28;20119;-68
2023/12/28 10:30:23;;;;;;;13.90;6.43;;;;;;;8.60;100.00;101790.06;5087981;28;20126;-68
2023/12/28 10:32:49;;;;;;;15.10;6.70;;;;;;;8.60;100.00;101800.44;5090853;28;20040;-68
2023/12/28 10:35:15;;;;;;;17.17;6.72;;;;;;;8.55;100.00;101795.53;5090829;28;20051;-68
2023/12/28 10:37:44;;;;;;;12.05;5.70;;;;;;;8.57;100.00;101791.09;5089209;28;20426;-68
2023/12/28 10:40:17;;;;;;;12.80;5.35;;;;;;;8.55;100.00;101792.13;5085381;28;20545;-68
2023/12/28 10:43:01;;;;;;;11.50;5.85;;;;;;;8.55;100.00;101797.31;5088659;28;20394;-68
2023/12/28 10:45:29;;;;;;;11.00;5.40;;;;;;;8.57;100.00;101798.03;5088075;28;20518;-68
2023/12/28 10:48:09;;;;;;;10.85;4.35;;;;;;;8.50;100.00;101791.59;5089355;28;20020;-68
2023/12/28 10:50:49;;;;;;;7.55;3.42;;;;;;;8.46;100.00;101785.78;5088818;28;20047;-68
2023/12/28 10:53:29;;;;;;;11.75;3.90;;;;;;;8.47;100.00;101786.59;5086600;28;20367;-68
2023/12/28 10:56:04;;;;;;;9.48;3.72;;;;;;;8.44;100.00;101785.03;5088111;28;20115;-68
2023/12/28 10:58:50;;;;;;;7.13;3.60;;;;;;;8.46;100.00;101784.94;5086925;28;20104;-68
2023/12/28 11:01:23;;;;;;;10.27;3.45;;;;;;;8.47;100.00;101771.84;5086012;28;20044;-68
2023/12/28 11:03:57;;;;;;;6.20;3.03;;;;;;;8.53;100.00;101778.38;5089242;28;20043;-68
2023/12/28 11:06:25;;;;;;;9.15;3.88;;;;;;;8.59;100.00;101770.19;5086793;28;20060;-68
2023/12/28 11:08:53;;;;;;;9.43;3.55;;;;;;;8.64;100.00;101770.75;5090871;28;20028;-68
2023/12/28 11:11:21;;;;;;;11.43;3.63;;;;;;;8.68;100.00;101772.19;5087290;28;20028;-68
2023/12/28 11:13:48;;;;;;;9.10;3.80;;;;;;;8.70;100.00;101767.75;5084820;28;20032;-68